sensor_id;sensor_type;location;lat;lon;timestamp;temperature;humidity
60473;DHT22;46318;52.716;6.444;2023-04-24T00:00:56;11.30;99.90
60473;DHT22;46318;52.716;6.444;2023-04-24T00:03:23;11.30;99.90
60473;DHT22;46318;52.716;6.444;2023-04-24T00:05:49;11.30;99.90
60473;DHT22;46318;52.716;6.444;2023-04-24T00:08:15;11.30;99.90
60473;DHT22;46318;52.716;6.444;2023-04-24T00:10:41;11.30;99.90
60473;DHT22;46318;52.716;6.444;2023-04-24T00:13:07;11.30;99.90
60473;DHT22;46318;52.716;6.444;2023-04-24T00:15:33;11.20;99.90
60473;DHT22;46318;52.716;6.444;2023-04-24T00:17:59;11.20;99.90
60473;DHT22;46318;52.716;6.444;2023-04-24T00:20:27;11.20;99.90
60473;DHT22;46318;52.716;6.444;2023-04-24T00:22:58;11.20;99.90
60473;DHT22;46318;52.716;6.444;2023-04-24T00:25:23;11.20;99.90
60473;DHT22;46318;52.716;6.444;2023-04-24T00:27:49;11.10;99.90
60473;DHT22;46318;52.716;6.444;2023-04-24T00:30:15;11.10;99.90
60473;DHT22;46318;52.716;6.444;2023-04-24T00:32:41;11.10;99.90
60473;DHT22;46318;52.716;6.444;2023-04-24T00:35:07;11.10;99.90
60473;DHT22;46318;52.716;6.444;2023-04-24T00:37:33;11.10;99.90
60473;DHT22;46318;52.716;6.444;2023-04-24T00:39:59;11.10;99.90
60473;DHT22;46318;52.716;6.444;2023-04-24T00:42:25;11.00;99.90
60473;DHT22;46318;52.716;6.444;2023-04-24T00:44:51;11.00;99.90
60473;DHT22;46318;52.716;6.444;2023-04-24T00:47:19;11.00;99.90
60473;DHT22;46318;52.716;6.444;2023-04-24T00:49:45;11.00;99.90
60473;DHT22;46318;52.716;6.444;2023-04-24T00:52:11;11.00;99.90
60473;DHT22;46318;52.716;6.444;2023-04-24T00:54:37;11.00;99.90
60473;DHT22;46318;52.716;6.444;2023-04-24T00:57:04;11.00;99.90
60473;DHT22;46318;52.716;6.444;2023-04-24T00:59:30;11.00;99.90
60473;DHT22;46318;52.716;6.444;2023-04-24T01:01:57;11.00;99.90
60473;DHT22;46318;52.716;6.444;2023-04-24T01:04:23;11.00;99.90
60473;DHT22;46318;52.716;6.444;2023-04-24T01:06:50;11.00;99.90
60473;DHT22;46318;52.716;6.444;2023-04-24T01:09:16;11.00;99.90
60473;DHT22;46318;52.716;6.444;2023-04-24T01:11:43;10.90;99.90
60473;DHT22;46318;52.716;6.444;2023-04-24T01:14:09;10.90;99.90
60473;DHT22;46318;52.716;6.444;2023-04-24T01:16:35;10.90;99.90
60473;DHT22;46318;52.716;6.444;2023-04-24T01:19:04;10.80;99.90
60473;DHT22;46318;52.716;6.444;2023-04-24T01:21:34;10.80;99.90
60473;DHT22;46318;52.716;6.444;2023-04-24T01:24:05;10.80;99.90
60473;DHT22;46318;52.716;6.444;2023-04-24T01:26:32;10.80;99.90
60473;DHT22;46318;52.716;6.444;2023-04-24T01:28:58;10.70;99.90
60473;DHT22;46318;52.716;6.444;2023-04-24T01:31:24;10.70;99.90
60473;DHT22;46318;52.716;6.444;2023-04-24T01:33:51;10.70;99.90
60473;DHT22;46318;52.716;6.444;2023-04-24T01:36:18;10.70;99.90
60473;DHT22;46318;52.716;6.444;2023-04-24T01:38:45;10.60;99.90
60473;DHT22;46318;52.716;6.444;2023-04-24T01:41:10;10.60;99.90
60473;DHT22;46318;52.716;6.444;2023-04-24T01:43:36;10.60;99.90
60473;DHT22;46318;52.716;6.444;2023-04-24T01:46:02;10.60;99.90
60473;DHT22;46318;52.716;6.444;2023-04-24T01:48:28;10.50;99.90
60473;DHT22;46318;52.716;6.444;2023-04-24T01:50:56;10.50;99.90
60473;DHT22;46318;52.716;6.444;2023-04-24T01:53:22;10.50;99.90
60473;DHT22;46318;52.716;6.444;2023-04-24T01:55:48;10.50;99.90
60473;DHT22;46318;52.716;6.444;2023-04-24T01:58:14;10.40;99.90
60473;DHT22;46318;52.716;6.444;2023-04-24T02:00:40;10.40;99.90
60473;DHT22;46318;52.716;6.444;2023-04-24T02:03:06;10.40;99.90
60473;DHT22;46318;52.716;6.444;2023-04-24T02:05:32;10.40;99.90
60473;DHT22;46318;52.716;6.444;2023-04-24T02:07:58;10.40;99.90
60473;DHT22;46318;52.716;6.444;2023-04-24T02:10:24;10.40;99.90
60473;DHT22;46318;52.716;6.444;2023-04-24T02:12:50;10.40;99.90
60473;DHT22;46318;52.716;6.444;2023-04-24T02:15:16;10.40;99.90
60473;DHT22;46318;52.716;6.444;2023-04-24T02:17:43;10.30;99.90
60473;DHT22;46318;52.716;6.444;2023-04-24T02:20:09;10.40;99.90
60473;DHT22;46318;52.716;6.444;2023-04-24T02:22:35;10.30;99.90
60473;DHT22;46318;52.716;6.444;2023-04-24T02:25:01;10.30;99.90
60473;DHT22;46318;52.716;6.444;2023-04-24T02:27:27;10.30;99.90
60473;DHT22;46318;52.716;6.444;2023-04-24T02:29:53;10.30;99.90
60473;DHT22;46318;52.716;6.444;2023-04-24T02:32:19;10.30;99.90
60473;DHT22;46318;52.716;6.444;2023-04-24T02:34:44;10.30;99.90
60473;DHT22;46318;52.716;6.444;2023-04-24T02:37:10;10.30;99.90
60473;DHT22;46318;52.716;6.444;2023-04-24T02:39:36;10.30;99.90
60473;DHT22;46318;52.716;6.444;2023-04-24T02:42:02;10.30;99.90
60473;DHT22;46318;52.716;6.444;2023-04-24T02:44:28;10.30;99.90
60473;DHT22;46318;52.716;6.444;2023-04-24T02:46:54;10.30;99.90
60473;DHT22;46318;52.716;6.444;2023-04-24T02:49:19;10.30;99.90
60473;DHT22;46318;52.716;6.444;2023-04-24T02:51:45;10.20;99.90
60473;DHT22;46318;52.716;6.444;2023-04-24T02:54:11;10.20;99.90
60473;DHT22;46318;52.716;6.444;2023-04-24T02:56:37;10.20;99.90
60473;DHT22;46318;52.716;6.444;2023-04-24T02:59:03;10.20;99.90
60473;DHT22;46318;52.716;6.444;2023-04-24T03:01:29;10.20;99.90
60473;DHT22;46318;52.716;6.444;2023-04-24T03:03:55;10.20;99.90
60473;DHT22;46318;52.716;6.444;2023-04-24T03:06:21;10.20;99.90
60473;DHT22;46318;52.716;6.444;2023-04-24T03:08:46;10.20;99.90
60473;DHT22;46318;52.716;6.444;2023-04-24T03:11:12;10.20;99.90
60473;DHT22;46318;52.716;6.444;2023-04-24T03:13:38;10.20;99.90
60473;DHT22;46318;52.716;6.444;2023-04-24T03:16:05;10.20;99.90
60473;DHT22;46318;52.716;6.444;2023-04-24T03:18:31;10.20;99.90
60473;DHT22;46318;52.716;6.444;2023-04-24T03:20:57;10.10;99.90
60473;DHT22;46318;52.716;6.444;2023-04-24T03:23:23;10.20;99.90
60473;DHT22;46318;52.716;6.444;2023-04-24T03:25:48;10.10;99.90
60473;DHT22;46318;52.716;6.444;2023-04-24T03:28:14;10.10;99.90
60473;DHT22;46318;52.716;6.444;2023-04-24T03:30:40;10.10;99.90
60473;DHT22;46318;52.716;6.444;2023-04-24T03:33:06;10.10;99.90
60473;DHT22;46318;52.716;6.444;2023-04-24T03:35:32;10.10;99.90
60473;DHT22;46318;52.716;6.444;2023-04-24T03:37:58;10.10;99.90
60473;DHT22;46318;52.716;6.444;2023-04-24T03:40:23;10.00;99.90
60473;DHT22;46318;52.716;6.444;2023-04-24T03:42:49;10.00;99.90
60473;DHT22;46318;52.716;6.444;2023-04-24T03:45:15;10.00;99.90
60473;DHT22;46318;52.716;6.444;2023-04-24T03:47:41;10.00;99.90
60473;DHT22;46318;52.716;6.444;2023-04-24T03:50:07;10.00;99.90
60473;DHT22;46318;52.716;6.444;2023-04-24T03:52:33;10.00;99.90
60473;DHT22;46318;52.716;6.444;2023-04-24T03:54:59;9.90;99.90
60473;DHT22;46318;52.716;6.444;2023-04-24T03:57:25;10.00;99.90
60473;DHT22;46318;52.716;6.444;2023-04-24T03:59:50;10.00;99.90
60473;DHT22;46318;52.716;6.444;2023-04-24T04:02:16;10.00;99.90
60473;DHT22;46318;52.716;6.444;2023-04-24T04:04:42;10.00;99.90
60473;DHT22;46318;52.716;6.444;2023-04-24T04:07:08;10.00;99.90
60473;DHT22;46318;52.716;6.444;2023-04-24T04:09:34;9.90;99.90
60473;DHT22;46318;52.716;6.444;2023-04-24T04:12:00;9.90;99.90
60473;DHT22;46318;52.716;6.444;2023-04-24T04:14:27;9.90;99.90
60473;DHT22;46318;52.716;6.444;2023-04-24T04:16:53;9.90;99.90
60473;DHT22;46318;52.716;6.444;2023-04-24T04:19:18;9.90;99.90
60473;DHT22;46318;52.716;6.444;2023-04-24T04:21:44;9.90;99.90
60473;DHT22;46318;52.716;6.444;2023-04-24T04:24:11;9.90;99.90
60473;DHT22;46318;52.716;6.444;2023-04-24T04:26:38;9.90;99.90
60473;DHT22;46318;52.716;6.444;2023-04-24T04:29:04;9.90;99.90
60473;DHT22;46318;52.716;6.444;2023-04-24T04:31:30;9.90;99.90
60473;DHT22;46318;52.716;6.444;2023-04-24T04:33:56;9.80;99.90
60473;DHT22;46318;52.716;6.444;2023-04-24T04:36:22;9.80;99.90
60473;DHT22;46318;52.716;6.444;2023-04-24T04:38:49;9.80;99.90
60473;DHT22;46318;52.716;6.444;2023-04-24T04:41:15;9.80;99.90
60473;DHT22;46318;52.716;6.444;2023-04-24T04:43:43;9.80;99.90
60473;DHT22;46318;52.716;6.444;2023-04-24T04:46:09;9.80;99.90
60473;DHT22;46318;52.716;6.444;2023-04-24T04:48:36;9.70;99.90
60473;DHT22;46318;52.716;6.444;2023-04-24T04:51:03;9.70;99.90
60473;DHT22;46318;52.716;6.444;2023-04-24T04:53:29;9.70;99.90
60473;DHT22;46318;52.716;6.444;2023-04-24T04:55:55;9.60;99.90
60473;DHT22;46318;52.716;6.444;2023-04-24T04:58:21;9.60;99.90
60473;DHT22;46318;52.716;6.444;2023-04-24T05:00:47;9.60;99.90
60473;DHT22;46318;52.716;6.444;2023-04-24T05:03:13;9.60;99.90
60473;DHT22;46318;52.716;6.444;2023-04-24T05:05:38;9.60;99.90
60473;DHT22;46318;52.716;6.444;2023-04-24T05:08:07;9.60;99.90
60473;DHT22;46318;52.716;6.444;2023-04-24T05:10:34;9.60;99.90
60473;DHT22;46318;52.716;6.444;2023-04-24T05:13:00;9.60;99.90
60473;DHT22;46318;52.716;6.444;2023-04-24T05:15:26;9.70;99.90
60473;DHT22;46318;52.716;6.444;2023-04-24T05:17:52;9.60;99.90
60473;DHT22;46318;52.716;6.444;2023-04-24T05:20:18;9.60;99.90
60473;DHT22;46318;52.716;6.444;2023-04-24T05:22:43;9.60;99.90
60473;DHT22;46318;52.716;6.444;2023-04-24T05:25:09;9.70;99.90
60473;DHT22;46318;52.716;6.444;2023-04-24T05:27:35;9.70;99.90
60473;DHT22;46318;52.716;6.444;2023-04-24T05:30:01;9.70;99.90
60473;DHT22;46318;52.716;6.444;2023-04-24T05:32:27;9.70;99.90
60473;DHT22;46318;52.716;6.444;2023-04-24T05:34:53;9.70;99.90
60473;DHT22;46318;52.716;6.444;2023-04-24T05:37:19;9.70;99.90
60473;DHT22;46318;52.716;6.444;2023-04-24T05:39:47;9.80;99.90
60473;DHT22;46318;52.716;6.444;2023-04-24T05:42:13;9.80;99.90
60473;DHT22;46318;52.716;6.444;2023-04-24T05:44:38;9.80;99.90
60473;DHT22;46318;52.716;6.444;2023-04-24T05:47:04;9.80;99.90
60473;DHT22;46318;52.716;6.444;2023-04-24T05:49:30;9.80;99.90
60473;DHT22;46318;52.716;6.444;2023-04-24T05:51:57;9.80;99.90
60473;DHT22;46318;52.716;6.444;2023-04-24T05:54:23;9.80;99.90
60473;DHT22;46318;52.716;6.444;2023-04-24T05:56:49;9.90;99.90
60473;DHT22;46318;52.716;6.444;2023-04-24T05:59:16;9.90;99.90
60473;DHT22;46318;52.716;6.444;2023-04-24T06:01:42;9.80;99.90
60473;DHT22;46318;52.716;6.444;2023-04-24T06:04:08;9.90;99.90
60473;DHT22;46318;52.716;6.444;2023-04-24T06:06:35;9.90;99.90
60473;DHT22;46318;52.716;6.444;2023-04-24T06:09:00;9.90;99.90
60473;DHT22;46318;52.716;6.444;2023-04-24T06:11:27;9.90;99.90
60473;DHT22;46318;52.716;6.444;2023-04-24T06:13:53;9.90;99.90
60473;DHT22;46318;52.716;6.444;2023-04-24T06:16:19;9.90;99.90
60473;DHT22;46318;52.716;6.444;2023-04-24T06:18:45;9.90;99.90
60473;DHT22;46318;52.716;6.444;2023-04-24T06:21:12;9.90;99.90
60473;DHT22;46318;52.716;6.444;2023-04-24T06:23:38;9.90;99.90
60473;DHT22;46318;52.716;6.444;2023-04-24T06:26:04;9.90;99.90
60473;DHT22;46318;52.716;6.444;2023-04-24T06:28:30;9.90;99.90
60473;DHT22;46318;52.716;6.444;2023-04-24T06:30:56;10.00;99.90
60473;DHT22;46318;52.716;6.444;2023-04-24T06:33:22;10.00;99.90
60473;DHT22;46318;52.716;6.444;2023-04-24T06:35:47;10.00;99.90
60473;DHT22;46318;52.716;6.444;2023-04-24T06:38:13;10.00;99.90
60473;DHT22;46318;52.716;6.444;2023-04-24T06:40:39;10.00;99.90
60473;DHT22;46318;52.716;6.444;2023-04-24T06:43:05;10.00;99.90
60473;DHT22;46318;52.716;6.444;2023-04-24T06:45:31;10.00;99.90
60473;DHT22;46318;52.716;6.444;2023-04-24T06:47:57;9.90;99.90
60473;DHT22;46318;52.716;6.444;2023-04-24T06:50:23;9.90;99.90
60473;DHT22;46318;52.716;6.444;2023-04-24T06:52:49;10.00;99.90
60473;DHT22;46318;52.716;6.444;2023-04-24T06:55:15;9.90;99.90
60473;DHT22;46318;52.716;6.444;2023-04-24T06:57:42;9.90;99.90
60473;DHT22;46318;52.716;6.444;2023-04-24T07:00:09;9.90;99.90
60473;DHT22;46318;52.716;6.444;2023-04-24T07:02:36;9.90;99.90
60473;DHT22;46318;52.716;6.444;2023-04-24T07:05:04;9.90;99.90
60473;DHT22;46318;52.716;6.444;2023-04-24T07:07:31;9.90;99.90
60473;DHT22;46318;52.716;6.444;2023-04-24T07:09:57;9.90;99.90
60473;DHT22;46318;52.716;6.444;2023-04-24T07:12:23;9.90;99.90
60473;DHT22;46318;52.716;6.444;2023-04-24T07:14:50;9.90;99.90
60473;DHT22;46318;52.716;6.444;2023-04-24T07:17:16;9.90;99.90
60473;DHT22;46318;52.716;6.444;2023-04-24T07:19:42;9.90;99.90
60473;DHT22;46318;52.716;6.444;2023-04-24T07:22:08;9.90;99.90
60473;DHT22;46318;52.716;6.444;2023-04-24T07:24:34;9.90;99.90
60473;DHT22;46318;52.716;6.444;2023-04-24T07:27:00;9.90;99.90
60473;DHT22;46318;52.716;6.444;2023-04-24T07:29:28;9.90;99.90
60473;DHT22;46318;52.716;6.444;2023-04-24T07:31:54;9.90;99.90
60473;DHT22;46318;52.716;6.444;2023-04-24T07:34:21;9.80;99.90
60473;DHT22;46318;52.716;6.444;2023-04-24T07:36:47;9.90;99.90
60473;DHT22;46318;52.716;6.444;2023-04-24T07:39:13;9.90;99.90
60473;DHT22;46318;52.716;6.444;2023-04-24T07:41:39;9.80;99.90
60473;DHT22;46318;52.716;6.444;2023-04-24T07:44:04;9.80;99.90
60473;DHT22;46318;52.716;6.444;2023-04-24T07:46:31;9.90;99.90
60473;DHT22;46318;52.716;6.444;2023-04-24T07:48:57;9.90;99.90
60473;DHT22;46318;52.716;6.444;2023-04-24T07:51:24;9.90;99.90
60473;DHT22;46318;52.716;6.444;2023-04-24T07:53:53;9.90;99.90
60473;DHT22;46318;52.716;6.444;2023-04-24T07:56:20;9.80;99.90
60473;DHT22;46318;52.716;6.444;2023-04-24T07:58:46;9.90;99.90
60473;DHT22;46318;52.716;6.444;2023-04-24T08:01:12;9.80;99.90
60473;DHT22;46318;52.716;6.444;2023-04-24T08:03:38;9.80;99.90
60473;DHT22;46318;52.716;6.444;2023-04-24T08:06:04;9.80;99.90
60473;DHT22;46318;52.716;6.444;2023-04-24T08:08:30;9.80;99.90
60473;DHT22;46318;52.716;6.444;2023-04-24T08:10:56;9.80;99.90
60473;DHT22;46318;52.716;6.444;2023-04-24T08:13:22;9.80;99.90
60473;DHT22;46318;52.716;6.444;2023-04-24T08:15:48;9.80;99.90
60473;DHT22;46318;52.716;6.444;2023-04-24T08:18:14;9.80;99.90
60473;DHT22;46318;52.716;6.444;2023-04-24T08:20:41;9.80;99.90
60473;DHT22;46318;52.716;6.444;2023-04-24T08:23:07;9.70;99.90
60473;DHT22;46318;52.716;6.444;2023-04-24T08:25:33;9.70;99.90
60473;DHT22;46318;52.716;6.444;2023-04-24T08:28:02;9.70;99.90
60473;DHT22;46318;52.716;6.444;2023-04-24T08:30:29;9.70;99.90
60473;DHT22;46318;52.716;6.444;2023-04-24T08:32:56;9.70;99.90
60473;DHT22;46318;52.716;6.444;2023-04-24T08:35:22;9.70;99.90
60473;DHT22;46318;52.716;6.444;2023-04-24T08:37:48;9.70;99.90
60473;DHT22;46318;52.716;6.444;2023-04-24T08:40:15;9.60;99.90
60473;DHT22;46318;52.716;6.444;2023-04-24T08:42:45;9.60;99.90
60473;DHT22;46318;52.716;6.444;2023-04-24T08:45:12;9.60;99.90
60473;DHT22;46318;52.716;6.444;2023-04-24T08:47:39;9.60;99.90
60473;DHT22;46318;52.716;6.444;2023-04-24T08:50:07;9.60;99.90
60473;DHT22;46318;52.716;6.444;2023-04-24T08:52:34;9.50;99.90
60473;DHT22;46318;52.716;6.444;2023-04-24T08:55:01;9.50;99.90
60473;DHT22;46318;52.716;6.444;2023-04-24T08:57:28;9.50;99.90
60473;DHT22;46318;52.716;6.444;2023-04-24T08:59:55;9.40;99.90
60473;DHT22;46318;52.716;6.444;2023-04-24T09:02:23;9.40;99.90
60473;DHT22;46318;52.716;6.444;2023-04-24T09:04:49;9.40;99.90
60473;DHT22;46318;52.716;6.444;2023-04-24T09:07:16;9.30;99.90
60473;DHT22;46318;52.716;6.444;2023-04-24T09:09:44;9.30;99.90
60473;DHT22;46318;52.716;6.444;2023-04-24T09:12:10;9.30;99.90
60473;DHT22;46318;52.716;6.444;2023-04-24T09:14:36;9.30;99.90
60473;DHT22;46318;52.716;6.444;2023-04-24T09:17:06;9.30;99.90
60473;DHT22;46318;52.716;6.444;2023-04-24T09:19:32;9.20;99.90
60473;DHT22;46318;52.716;6.444;2023-04-24T09:21:57;9.20;99.90
60473;DHT22;46318;52.716;6.444;2023-04-24T09:24:23;9.20;99.90
60473;DHT22;46318;52.716;6.444;2023-04-24T09:26:56;9.20;99.90
60473;DHT22;46318;52.716;6.444;2023-04-24T09:29:24;9.20;99.90
60473;DHT22;46318;52.716;6.444;2023-04-24T09:31:50;9.20;99.90
60473;DHT22;46318;52.716;6.444;2023-04-24T09:34:25;9.20;99.90
60473;DHT22;46318;52.716;6.444;2023-04-24T09:36:52;9.20;99.90
60473;DHT22;46318;52.716;6.444;2023-04-24T09:39:19;9.20;99.90
60473;DHT22;46318;52.716;6.444;2023-04-24T09:41:52;9.20;99.90
60473;DHT22;46318;52.716;6.444;2023-04-24T09:44:24;9.20;99.90
60473;DHT22;46318;52.716;6.444;2023-04-24T09:46:56;9.20;99.90
60473;DHT22;46318;52.716;6.444;2023-04-24T09:51:52;9.30;99.90
60473;DHT22;46318;52.716;6.444;2023-04-24T09:54:19;9.30;99.90
60473;DHT22;46318;52.716;6.444;2023-04-24T09:56:48;9.30;99.90
60473;DHT22;46318;52.716;6.444;2023-04-24T09:59:17;9.30;99.90
60473;DHT22;46318;52.716;6.444;2023-04-24T10:01:45;9.40;99.90
60473;DHT22;46318;52.716;6.444;2023-04-24T10:06:46;9.40;99.90
60473;DHT22;46318;52.716;6.444;2023-04-24T10:09:19;9.40;99.90
60473;DHT22;46318;52.716;6.444;2023-04-24T10:11:49;9.40;99.90
60473;DHT22;46318;52.716;6.444;2023-04-24T10:14:20;9.40;99.90
60473;DHT22;46318;52.716;6.444;2023-04-24T10:16:53;9.40;99.90
60473;DHT22;46318;52.716;6.444;2023-04-24T10:19:19;9.40;99.90
60473;DHT22;46318;52.716;6.444;2023-04-24T10:21:46;9.40;99.90
60473;DHT22;46318;52.716;6.444;2023-04-24T10:24:17;9.30;99.90
60473;DHT22;46318;52.716;6.444;2023-04-24T10:26:45;9.20;99.90
60473;DHT22;46318;52.716;6.444;2023-04-24T10:29:14;9.20;99.90
60473;DHT22;46318;52.716;6.444;2023-04-24T10:31:44;9.10;99.90
60473;DHT22;46318;52.716;6.444;2023-04-24T10:34:15;9.10;99.90
60473;DHT22;46318;52.716;6.444;2023-04-24T10:36:46;9.10;99.90
60473;DHT22;46318;52.716;6.444;2023-04-24T10:39:14;9.10;99.90
60473;DHT22;46318;52.716;6.444;2023-04-24T10:41:41;9.00;99.90
60473;DHT22;46318;52.716;6.444;2023-04-24T10:44:12;9.00;99.90
60473;DHT22;46318;52.716;6.444;2023-04-24T10:46:43;9.00;99.90
60473;DHT22;46318;52.716;6.444;2023-04-24T10:49:10;9.00;99.90
60473;DHT22;46318;52.716;6.444;2023-04-24T10:59:44;9.00;99.90
60473;DHT22;46318;52.716;6.444;2023-04-24T11:02:10;9.00;99.90
60473;DHT22;46318;52.716;6.444;2023-04-24T11:04:36;9.00;99.90
60473;DHT22;46318;52.716;6.444;2023-04-24T11:07:05;9.10;99.90
60473;DHT22;46318;52.716;6.444;2023-04-24T11:09:32;9.10;99.90
60473;DHT22;46318;52.716;6.444;2023-04-24T11:12:09;9.10;99.90
60473;DHT22;46318;52.716;6.444;2023-04-24T11:15:02;9.20;99.90
60473;DHT22;46318;52.716;6.444;2023-04-24T11:17:35;9.20;99.90
60473;DHT22;46318;52.716;6.444;2023-04-24T11:20:10;9.20;99.90
60473;DHT22;46318;52.716;6.444;2023-04-24T11:22:38;9.30;99.90
60473;DHT22;46318;52.716;6.444;2023-04-24T11:25:08;9.30;99.90
60473;DHT22;46318;52.716;6.444;2023-04-24T11:27:44;9.30;99.90
60473;DHT22;46318;52.716;6.444;2023-04-24T11:30:11;9.40;99.90
60473;DHT22;46318;52.716;6.444;2023-04-24T11:32:47;9.40;99.90
60473;DHT22;46318;52.716;6.444;2023-04-24T11:35:22;9.40;99.90
60473;DHT22;46318;52.716;6.444;2023-04-24T11:37:52;9.40;99.90
60473;DHT22;46318;52.716;6.444;2023-04-24T11:40:20;9.30;99.90
60473;DHT22;46318;52.716;6.444;2023-04-24T11:42:49;9.40;99.90
60473;DHT22;46318;52.716;6.444;2023-04-24T11:45:23;9.40;99.90
60473;DHT22;46318;52.716;6.444;2023-04-24T11:47:50;9.40;99.90
60473;DHT22;46318;52.716;6.444;2023-04-24T11:50:18;9.40;99.90
60473;DHT22;46318;52.716;6.444;2023-04-24T11:52:47;9.40;99.90
60473;DHT22;46318;52.716;6.444;2023-04-24T11:57:43;9.50;99.90
60473;DHT22;46318;52.716;6.444;2023-04-24T12:00:22;9.40;99.90
60473;DHT22;46318;52.716;6.444;2023-04-24T12:03:05;9.40;99.90
60473;DHT22;46318;52.716;6.444;2023-04-24T12:05:32;9.40;99.90
60473;DHT22;46318;52.716;6.444;2023-04-24T12:07:59;9.40;99.90
60473;DHT22;46318;52.716;6.444;2023-04-24T12:10:26;9.40;99.90
60473;DHT22;46318;52.716;6.444;2023-04-24T12:12:55;9.40;99.90
60473;DHT22;46318;52.716;6.444;2023-04-24T12:15:22;9.50;99.90
60473;DHT22;46318;52.716;6.444;2023-04-24T12:17:50;9.50;99.90
60473;DHT22;46318;52.716;6.444;2023-04-24T12:20:17;9.50;99.90
60473;DHT22;46318;52.716;6.444;2023-04-24T12:22:53;9.50;99.90
60473;DHT22;46318;52.716;6.444;2023-04-24T12:25:25;9.50;99.90
60473;DHT22;46318;52.716;6.444;2023-04-24T12:30:43;9.60;99.90
60473;DHT22;46318;52.716;6.444;2023-04-24T12:33:17;9.60;99.90
60473;DHT22;46318;52.716;6.444;2023-04-24T12:35:48;9.60;99.90
60473;DHT22;46318;52.716;6.444;2023-04-24T12:38:22;9.50;99.90
60473;DHT22;46318;52.716;6.444;2023-04-24T12:41:02;9.50;99.90
60473;DHT22;46318;52.716;6.444;2023-04-24T12:43:29;9.40;99.90
60473;DHT22;46318;52.716;6.444;2023-04-24T12:45:55;9.40;99.90
60473;DHT22;46318;52.716;6.444;2023-04-24T12:48:22;9.40;99.90
60473;DHT22;46318;52.716;6.444;2023-04-24T12:50:48;9.40;99.90
60473;DHT22;46318;52.716;6.444;2023-04-24T12:53:14;9.30;99.90
60473;DHT22;46318;52.716;6.444;2023-04-24T12:55:41;9.30;99.90
60473;DHT22;46318;52.716;6.444;2023-04-24T12:58:07;9.40;99.90
60473;DHT22;46318;52.716;6.444;2023-04-24T13:00:33;9.30;99.90
60473;DHT22;46318;52.716;6.444;2023-04-24T13:02:59;9.40;99.90
60473;DHT22;46318;52.716;6.444;2023-04-24T13:05:25;9.40;99.90
60473;DHT22;46318;52.716;6.444;2023-04-24T13:07:51;9.40;99.90
60473;DHT22;46318;52.716;6.444;2023-04-24T13:10:17;9.40;99.90
60473;DHT22;46318;52.716;6.444;2023-04-24T13:12:43;9.40;99.90
60473;DHT22;46318;52.716;6.444;2023-04-24T13:15:11;9.40;99.90
60473;DHT22;46318;52.716;6.444;2023-04-24T13:17:37;9.40;99.90
60473;DHT22;46318;52.716;6.444;2023-04-24T13:20:05;9.40;99.90
60473;DHT22;46318;52.716;6.444;2023-04-24T13:22:31;9.40;99.90
60473;DHT22;46318;52.716;6.444;2023-04-24T13:24:57;9.40;99.90
60473;DHT22;46318;52.716;6.444;2023-04-24T13:27:31;9.40;99.90
60473;DHT22;46318;52.716;6.444;2023-04-24T13:29:58;9.40;99.90
60473;DHT22;46318;52.716;6.444;2023-04-24T13:32:24;9.40;99.90
60473;DHT22;46318;52.716;6.444;2023-04-24T13:34:50;9.40;99.90
60473;DHT22;46318;52.716;6.444;2023-04-24T13:37:16;9.40;99.90
60473;DHT22;46318;52.716;6.444;2023-04-24T13:39:42;9.40;99.90
60473;DHT22;46318;52.716;6.444;2023-04-24T13:42:08;9.40;99.90
60473;DHT22;46318;52.716;6.444;2023-04-24T13:44:34;9.40;99.90
60473;DHT22;46318;52.716;6.444;2023-04-24T13:47:00;9.40;99.90
60473;DHT22;46318;52.716;6.444;2023-04-24T13:49:26;9.40;99.90
60473;DHT22;46318;52.716;6.444;2023-04-24T13:51:54;9.40;99.90
60473;DHT22;46318;52.716;6.444;2023-04-24T13:54:21;9.40;99.90
60473;DHT22;46318;52.716;6.444;2023-04-24T13:56:49;9.40;99.90
60473;DHT22;46318;52.716;6.444;2023-04-24T13:59:15;9.40;99.90
60473;DHT22;46318;52.716;6.444;2023-04-24T14:01:40;9.40;99.90
60473;DHT22;46318;52.716;6.444;2023-04-24T14:04:06;9.40;99.90
60473;DHT22;46318;52.716;6.444;2023-04-24T14:06:32;9.40;99.90
60473;DHT22;46318;52.716;6.444;2023-04-24T14:08:58;9.30;99.90
60473;DHT22;46318;52.716;6.444;2023-04-24T14:11:24;9.30;99.90
60473;DHT22;46318;52.716;6.444;2023-04-24T14:13:51;9.30;99.90
60473;DHT22;46318;52.716;6.444;2023-04-24T14:16:17;9.20;99.90
60473;DHT22;46318;52.716;6.444;2023-04-24T14:18:43;9.30;99.90
60473;DHT22;46318;52.716;6.444;2023-04-24T14:21:09;9.20;99.90
60473;DHT22;46318;52.716;6.444;2023-04-24T14:23:35;9.30;99.90
60473;DHT22;46318;52.716;6.444;2023-04-24T14:26:00;9.30;99.90
60473;DHT22;46318;52.716;6.444;2023-04-24T14:28:26;9.20;99.90
60473;DHT22;46318;52.716;6.444;2023-04-24T14:30:53;9.20;99.90
60473;DHT22;46318;52.716;6.444;2023-04-24T14:33:19;9.20;99.90
60473;DHT22;46318;52.716;6.444;2023-04-24T14:35:46;9.20;99.90
60473;DHT22;46318;52.716;6.444;2023-04-24T14:38:11;9.20;99.90
60473;DHT22;46318;52.716;6.444;2023-04-24T14:40:38;9.30;99.90
60473;DHT22;46318;52.716;6.444;2023-04-24T14:43:04;9.20;99.90
60473;DHT22;46318;52.716;6.444;2023-04-24T14:45:30;9.20;99.90
60473;DHT22;46318;52.716;6.444;2023-04-24T14:47:57;9.20;99.90
60473;DHT22;46318;52.716;6.444;2023-04-24T14:50:26;9.30;99.90
60473;DHT22;46318;52.716;6.444;2023-04-24T14:52:55;9.30;99.90
60473;DHT22;46318;52.716;6.444;2023-04-24T14:55:25;9.30;99.90
60473;DHT22;46318;52.716;6.444;2023-04-24T14:57:52;9.30;99.90
60473;DHT22;46318;52.716;6.444;2023-04-24T15:00:18;9.30;99.90
60473;DHT22;46318;52.716;6.444;2023-04-24T15:02:48;9.30;99.90
60473;DHT22;46318;52.716;6.444;2023-04-24T15:05:14;9.30;99.90
60473;DHT22;46318;52.716;6.444;2023-04-24T15:07:40;9.30;99.90
60473;DHT22;46318;52.716;6.444;2023-04-24T15:10:07;9.20;99.90
60473;DHT22;46318;52.716;6.444;2023-04-24T15:12:33;9.30;99.90
60473;DHT22;46318;52.716;6.444;2023-04-24T15:14:59;9.30;99.90
60473;DHT22;46318;52.716;6.444;2023-04-24T15:17:26;9.30;99.90
60473;DHT22;46318;52.716;6.444;2023-04-24T15:19:52;9.30;99.90
60473;DHT22;46318;52.716;6.444;2023-04-24T15:22:18;9.30;99.90
60473;DHT22;46318;52.716;6.444;2023-04-24T15:24:44;9.30;99.90
60473;DHT22;46318;52.716;6.444;2023-04-24T15:27:10;9.30;99.90
60473;DHT22;46318;52.716;6.444;2023-04-24T15:29:37;9.30;99.90
60473;DHT22;46318;52.716;6.444;2023-04-24T15:32:02;9.30;99.90
60473;DHT22;46318;52.716;6.444;2023-04-24T15:34:28;9.30;99.90
60473;DHT22;46318;52.716;6.444;2023-04-24T15:36:54;9.30;99.90
60473;DHT22;46318;52.716;6.444;2023-04-24T15:39:23;9.30;99.90
60473;DHT22;46318;52.716;6.444;2023-04-24T15:41:50;9.30;99.90
60473;DHT22;46318;52.716;6.444;2023-04-24T15:44:16;9.40;99.90
60473;DHT22;46318;52.716;6.444;2023-04-24T15:46:42;9.30;99.90
60473;DHT22;46318;52.716;6.444;2023-04-24T15:49:08;9.40;99.90
60473;DHT22;46318;52.716;6.444;2023-04-24T15:51:34;9.40;99.90
60473;DHT22;46318;52.716;6.444;2023-04-24T15:53:59;9.40;99.90
60473;DHT22;46318;52.716;6.444;2023-04-24T15:56:25;9.40;99.90
60473;DHT22;46318;52.716;6.444;2023-04-24T15:58:52;9.40;99.90